createdAt,value
2018-12-02T00:00:56.617Z,68.27
2018-12-02T00:03:24.554Z,65.30
2018-12-02T00:05:52.367Z,67.17
2018-12-02T00:08:20.377Z,60.33
2018-12-02T00:10:49.816Z,62.63
2018-12-02T00:13:17.495Z,61.20
2018-12-02T00:15:45.272Z,55.40
2018-12-02T00:18:13.412Z,59.80
2018-12-02T00:20:41.354Z,62.90
2018-12-02T00:23:09.515Z,57.97
2018-12-02T00:25:37.609Z,57.87
2018-12-02T00:28:05.928Z,60.27
2018-12-02T00:30:33.747Z,52.20
2018-12-02T00:33:01.874Z,53.57
2018-12-02T00:35:29.890Z,52.17
2018-12-02T00:37:58.262Z,51.63
2018-12-02T00:40:26.053Z,53.13
2018-12-02T00:42:57.127Z,51.23
2018-12-02T00:45:26.298Z,45.13
2018-12-02T00:47:53.985Z,48.33
2018-12-02T00:50:21.792Z,44.53
2018-12-02T00:52:50.484Z,43.33
2018-12-02T00:55:19.745Z,49.70
2018-12-02T00:57:47.330Z,45.97
2018-12-02T01:00:15.476Z,45.73
2018-12-02T01:02:43.613Z,41.40
2018-12-02T01:05:11.969Z,44.73
2018-12-02T01:07:39.544Z,43.03
2018-12-02T01:10:08.577Z,46.87
2018-12-02T01:12:36.775Z,47.97
2018-12-02T01:15:05.282Z,43.27
2018-12-02T01:17:33.164Z,49.03
2018-12-02T01:20:01.904Z,41.93
2018-12-02T01:22:29.914Z,42.47
2018-12-02T01:24:58.204Z,35.63
2018-12-02T01:27:26.008Z,36.80
2018-12-02T01:29:53.898Z,35.67
2018-12-02T01:32:21.558Z,36.30
2018-12-02T01:34:49.194Z,36.67
2018-12-02T01:37:17.330Z,36.23
2018-12-02T01:39:45.088Z,39.67
2018-12-02T01:42:12.838Z,33.37
2018-12-02T01:44:40.707Z,36.50
2018-12-02T01:47:08.533Z,35.97
2018-12-02T01:49:36.623Z,33.63
2018-12-02T01:52:04.471Z,35.63
2018-12-02T01:54:32.154Z,34.67
2018-12-02T01:56:59.965Z,33.73
2018-12-02T01:59:27.811Z,34.43
2018-12-02T02:01:55.666Z,31.40
2018-12-02T02:04:23.568Z,34.27
2018-12-02T02:06:51.418Z,36.00
2018-12-02T02:09:19.922Z,33.43
2018-12-02T02:11:47.504Z,38.90
2018-12-02T02:14:15.330Z,36.30
2018-12-02T02:16:43.032Z,38.70
2018-12-02T02:19:10.830Z,39.10
2018-12-02T02:21:38.483Z,43.50
2018-12-02T02:24:06.082Z,42.20
2018-12-02T02:26:33.793Z,41.53
2018-12-02T02:29:01.632Z,42.60
2018-12-02T02:31:30.097Z,46.77
2018-12-02T02:33:57.938Z,44.73
2018-12-02T02:36:25.733Z,41.90
2018-12-02T02:38:53.637Z,45.53
2018-12-02T02:41:21.666Z,38.73
2018-12-02T02:43:49.530Z,42.90
2018-12-02T02:46:17.359Z,47.83
2018-12-02T02:48:45.834Z,40.47
2018-12-02T02:51:14.028Z,48.10
2018-12-02T02:53:41.904Z,39.23
2018-12-02T02:56:09.737Z,44.37
2018-12-02T02:58:37.961Z,39.10
2018-12-02T03:01:06.051Z,36.57
2018-12-02T03:03:33.973Z,41.73
2018-12-02T03:06:01.703Z,40.93
2018-12-02T03:08:29.545Z,40.53
2018-12-02T03:10:57.367Z,43.57
2018-12-02T03:13:25.474Z,40.23
2018-12-02T03:15:53.304Z,41.93
2018-12-02T03:18:21.051Z,42.43
2018-12-02T03:20:49.167Z,41.50
2018-12-02T03:23:16.897Z,39.70
2018-12-02T03:25:44.752Z,46.10
2018-12-02T03:28:13.155Z,45.83
2018-12-02T03:30:40.967Z,45.60
2018-12-02T03:33:08.669Z,48.13
2018-12-02T03:35:36.588Z,50.03
2018-12-02T03:38:04.424Z,47.30
2018-12-02T03:40:32.287Z,53.47
2018-12-02T03:43:00.355Z,49.37
2018-12-02T03:45:28.839Z,45.10
2018-12-02T03:47:56.990Z,40.87
2018-12-02T03:50:25.092Z,48.43
2018-12-02T03:52:52.929Z,39.63
2018-12-02T03:55:20.752Z,40.30
2018-12-02T03:57:48.923Z,37.50
2018-12-02T04:00:19.827Z,33.63
2018-12-02T04:02:47.488Z,35.23
2018-12-02T04:05:15.802Z,35.30
2018-12-02T04:07:43.843Z,35.30
2018-12-02T04:10:13.873Z,36.50
2018-12-02T04:12:41.773Z,30.70
2018-12-02T04:15:10.995Z,29.73
2018-12-02T04:17:38.700Z,28.83
2018-12-02T04:20:09.970Z,27.77
2018-12-02T04:22:37.884Z,26.77
2018-12-02T04:25:06.637Z,29.10
2018-12-02T04:27:34.704Z,30.27
2018-12-02T04:30:02.721Z,28.03
2018-12-02T04:32:30.911Z,30.90
2018-12-02T04:37:32.565Z,31.73
2018-12-02T04:40:00.323Z,33.67
2018-12-02T04:42:28.211Z,33.30
2018-12-02T04:44:56.009Z,32.80
2018-12-02T04:47:24.002Z,40.97
2018-12-02T04:49:51.701Z,38.20
2018-12-02T04:52:19.470Z,42.47
2018-12-02T04:54:47.486Z,38.73
2018-12-02T04:57:15.231Z,43.40
2018-12-02T04:59:43.148Z,43.97
2018-12-02T05:02:10.973Z,45.50
2018-12-02T05:04:38.683Z,51.80
2018-12-02T05:07:06.430Z,50.70
2018-12-02T05:09:34.371Z,55.90
2018-12-02T05:12:02.155Z,50.70
2018-12-02T05:14:29.880Z,52.43
2018-12-02T05:16:57.548Z,53.20
2018-12-02T05:19:25.509Z,55.17
2018-12-02T05:21:53.130Z,58.10
2018-12-02T05:24:21.188Z,72.23
2018-12-02T05:26:48.877Z,76.27
2018-12-02T05:29:16.688Z,69.97
2018-12-02T05:31:44.771Z,67.50
2018-12-02T05:34:12.536Z,65.43
2018-12-02T05:36:40.342Z,62.00
2018-12-02T05:39:09.332Z,62.73
2018-12-02T05:41:42.627Z,66.97
2018-12-02T05:44:10.377Z,65.40
2018-12-02T05:46:38.072Z,59.23
2018-12-02T05:49:06.032Z,57.70
2018-12-02T05:51:33.872Z,63.87
2018-12-02T05:54:01.615Z,58.70
2018-12-02T05:56:29.645Z,58.93
2018-12-02T05:58:57.458Z,67.17
2018-12-02T06:01:25.471Z,61.27
2018-12-02T06:03:53.409Z,65.40
2018-12-02T06:06:21.205Z,66.20
2018-12-02T06:08:48.882Z,62.17
2018-12-02T06:11:16.579Z,64.97
2018-12-02T06:13:44.428Z,66.90
2018-12-02T06:16:12.047Z,64.17
2018-12-02T06:18:40.031Z,70.50
2018-12-02T06:21:07.822Z,74.47
2018-12-02T06:23:35.594Z,78.17
2018-12-02T06:26:03.275Z,84.40
2018-12-02T06:28:31.116Z,80.57
2018-12-02T06:30:59.303Z,97.63
2018-12-02T06:33:27.049Z,127.57
2018-12-02T06:35:54.891Z,120.90
2018-12-02T06:38:22.570Z,134.60
2018-12-02T06:40:51.233Z,161.00
2018-12-02T06:43:18.952Z,178.87
2018-12-02T06:45:46.739Z,203.27
2018-12-02T06:48:14.547Z,277.13
2018-12-02T06:50:42.495Z,299.30
2018-12-02T06:53:10.313Z,298.37
2018-12-02T06:55:41.543Z,281.83
2018-12-02T06:58:25.924Z,227.77
2018-12-02T07:01:03.250Z,157.97
2018-12-02T07:03:53.353Z,155.17
2018-12-02T07:06:21.111Z,128.10
2018-12-02T07:08:48.881Z,129.67
2018-12-02T07:11:16.584Z,126.77
2018-12-02T07:13:44.809Z,124.60
2018-12-02T07:16:12.491Z,121.50
2018-12-02T07:18:41.745Z,118.87
2018-12-02T07:21:11.869Z,113.00
2018-12-02T07:23:41.309Z,134.77
2018-12-02T07:26:08.967Z,151.57
2018-12-02T07:28:36.760Z,164.47
2018-12-02T07:31:04.654Z,170.13
2018-12-02T07:33:32.433Z,187.57
2018-12-02T07:36:00.266Z,192.30
2018-12-02T07:38:30.197Z,178.83
2018-12-02T07:40:58.129Z,187.00
2018-12-02T07:43:26.121Z,183.77
2018-12-02T07:45:54.391Z,203.53
2018-12-02T07:48:22.181Z,180.13
2018-12-02T07:50:49.916Z,184.77
2018-12-02T07:53:17.573Z,193.77
2018-12-02T07:55:45.507Z,187.77
2018-12-02T07:58:15.712Z,201.83
2018-12-02T08:00:43.646Z,197.37
2018-12-02T08:03:11.918Z,212.83
2018-12-02T08:05:39.570Z,216.87
2018-12-02T08:08:07.310Z,202.67
2018-12-02T08:10:34.902Z,202.53
2018-12-02T08:13:02.460Z,183.70
2018-12-02T08:15:30.060Z,182.27
2018-12-02T08:17:57.682Z,172.40
2018-12-02T08:20:25.434Z,183.23
2018-12-02T08:22:53.264Z,163.40
2018-12-02T08:25:20.981Z,164.10
2018-12-02T08:27:49.185Z,154.63
2018-12-02T08:30:17.475Z,158.47
2018-12-02T08:32:45.065Z,165.27
2018-12-02T08:35:13.338Z,159.23
2018-12-02T08:37:41.315Z,148.37
2018-12-02T08:40:11.183Z,153.97
2018-12-02T08:42:38.740Z,151.13
2018-12-02T08:45:07.939Z,165.70
2018-12-02T08:47:35.463Z,154.90
2018-12-02T08:50:03.040Z,158.83
2018-12-02T08:52:30.627Z,163.67
2018-12-02T08:54:58.196Z,149.83
2018-12-02T08:57:25.758Z,160.67
2018-12-02T08:59:53.317Z,165.87
2018-12-02T09:02:21.065Z,167.43
2018-12-02T09:04:48.819Z,157.90
2018-12-02T09:07:16.693Z,164.37
2018-12-02T09:09:44.558Z,160.33
2018-12-02T09:12:12.387Z,171.73
2018-12-02T09:14:40.107Z,169.07
2018-12-02T09:17:07.973Z,177.97
2018-12-02T09:19:35.668Z,174.67
2018-12-02T09:22:03.463Z,168.17
2018-12-02T09:24:31.462Z,175.13
2018-12-02T09:26:59.171Z,187.17
2018-12-02T09:29:26.978Z,180.60
2018-12-02T09:31:54.947Z,168.30
2018-12-02T09:34:23.736Z,146.17
2018-12-02T09:36:51.578Z,164.43
2018-12-02T09:39:19.338Z,140.37
2018-12-02T09:41:47.104Z,125.07
2018-12-02T09:44:14.910Z,124.27
2018-12-02T09:46:42.834Z,121.73
2018-12-02T09:49:10.688Z,114.27
2018-12-02T09:51:38.382Z,124.47
2018-12-02T09:54:06.133Z,133.03
2018-12-02T09:56:33.893Z,127.03
2018-12-02T09:59:01.603Z,112.70
2018-12-02T10:01:29.418Z,108.07
2018-12-02T10:03:57.403Z,105.33
2018-12-02T10:06:25.288Z,98.80
2018-12-02T10:08:53.017Z,102.00
2018-12-02T10:11:21.150Z,88.10
2018-12-02T10:13:48.898Z,86.47
2018-12-02T10:16:17.365Z,91.30
2018-12-02T10:18:44.596Z,86.50
2018-12-02T10:21:12.509Z,101.63
2018-12-02T10:23:40.317Z,96.23
2018-12-02T10:26:07.985Z,98.57
2018-12-02T10:28:35.844Z,97.60
2018-12-02T10:31:03.524Z,92.90
2018-12-02T10:33:31.272Z,84.87
2018-12-02T10:35:59.253Z,85.70
2018-12-02T10:38:27.021Z,81.97
2018-12-02T10:40:55.546Z,87.47
2018-12-02T10:43:23.519Z,79.40
2018-12-02T10:45:52.091Z,78.40
2018-12-02T10:48:20.125Z,69.03
2018-12-02T10:50:47.986Z,74.50
2018-12-02T10:53:20.922Z,68.87
2018-12-02T10:55:49.432Z,67.20
2018-12-02T10:58:17.727Z,69.43
2018-12-02T11:00:50.825Z,68.77
2018-12-02T11:03:18.350Z,66.63
2018-12-02T11:05:45.921Z,64.47
2018-12-02T11:08:13.532Z,68.67
2018-12-02T11:10:41.128Z,65.00
2018-12-02T11:13:08.714Z,66.93
2018-12-02T11:15:36.429Z,67.30
2018-12-02T11:18:04.053Z,70.00
2018-12-02T11:20:31.608Z,65.70
2018-12-02T11:22:59.683Z,67.07
2018-12-02T11:25:27.702Z,65.10
2018-12-02T11:27:55.515Z,69.00
2018-12-02T11:30:23.425Z,67.50
2018-12-02T11:32:51.186Z,62.90
2018-12-02T11:35:19.173Z,71.57
2018-12-02T11:37:47.133Z,68.30
2018-12-02T11:40:15.351Z,67.23
2018-12-02T11:42:42.904Z,64.20
2018-12-02T11:45:11.121Z,77.10
2018-12-02T11:47:38.972Z,81.70
2018-12-02T11:50:10.343Z,107.67
2018-12-02T11:52:37.901Z,113.43
2018-12-02T11:55:05.723Z,95.67
2018-12-02T11:57:33.597Z,82.57
2018-12-02T12:00:01.427Z,73.73
2018-12-02T12:02:29.433Z,54.17
2018-12-02T12:04:56.977Z,48.83
2018-12-02T12:07:24.607Z,34.90
2018-12-02T12:09:53.102Z,28.57
2018-12-02T12:12:21.566Z,25.43
2018-12-02T12:14:50.781Z,31.40
2018-12-02T12:17:18.346Z,29.17
2018-12-02T12:19:45.952Z,27.62
2018-12-02T12:22:13.580Z,23.33
2018-12-02T12:24:41.387Z,22.73
2018-12-02T12:27:08.983Z,24.87
2018-12-02T12:29:36.624Z,21.63
2018-12-02T12:32:04.208Z,23.63
2018-12-02T12:34:31.771Z,24.47
2018-12-02T12:36:59.382Z,20.77
2018-12-02T12:39:27.058Z,22.20
2018-12-02T12:41:54.964Z,21.83
2018-12-02T12:44:22.944Z,22.90
2018-12-02T12:46:50.759Z,24.30
2018-12-02T12:49:18.477Z,26.67
2018-12-02T12:51:46.359Z,25.70
2018-12-02T12:54:14.274Z,43.20
2018-12-02T12:56:42.368Z,44.73
2018-12-02T12:59:10.358Z,47.57
2018-12-02T13:01:38.080Z,51.73
2018-12-02T13:04:05.910Z,37.87
2018-12-02T13:06:34.275Z,37.87
2018-12-02T13:09:02.078Z,28.37
2018-12-02T13:11:29.872Z,28.90
2018-12-02T13:13:57.724Z,33.57
2018-12-02T13:16:25.550Z,30.30
2018-12-02T13:18:53.624Z,30.83
2018-12-02T13:21:21.832Z,30.87
2018-12-02T13:23:49.619Z,30.67
2018-12-02T13:26:17.421Z,35.30
2018-12-02T13:28:45.286Z,39.23
2018-12-02T13:31:13.381Z,43.80
2018-12-02T13:33:41.191Z,47.97
2018-12-02T13:36:09.315Z,44.03
2018-12-02T13:38:37.295Z,32.83
2018-12-02T13:41:05.437Z,24.50
2018-12-02T13:43:33.204Z,24.00
2018-12-02T13:46:00.990Z,26.70
2018-12-02T13:48:28.574Z,31.93
2018-12-02T13:50:56.482Z,32.57
2018-12-02T13:53:24.253Z,29.37
2018-12-02T13:55:52.062Z,37.07
2018-12-02T13:58:19.595Z,45.13
2018-12-02T14:00:47.317Z,41.70
2018-12-02T14:03:15.300Z,44.93
2018-12-02T14:05:43.569Z,45.07
2018-12-02T14:08:11.540Z,47.87
2018-12-02T14:10:39.256Z,47.07
2018-12-02T14:13:08.950Z,49.40
2018-12-02T14:15:40.748Z,46.27
2018-12-02T14:18:16.709Z,49.73
2018-12-02T14:20:44.474Z,38.67
2018-12-02T14:23:12.464Z,45.50
2018-12-02T14:25:40.408Z,37.87
2018-12-02T14:28:08.340Z,34.60
2018-12-02T14:30:36.117Z,33.50
2018-12-02T14:33:04.012Z,33.80
2018-12-02T14:35:31.985Z,37.57
2018-12-02T14:38:00.125Z,38.50
2018-12-02T14:40:28.051Z,38.87
2018-12-02T14:42:55.908Z,37.63
2018-12-02T14:45:23.608Z,43.37
2018-12-02T14:47:51.473Z,51.30
2018-12-02T14:50:19.444Z,52.37
2018-12-02T14:52:47.768Z,58.53
2018-12-02T14:55:16.430Z,55.20
2018-12-02T14:57:44.404Z,53.07
2018-12-02T15:00:18.012Z,54.00
2018-12-02T15:02:45.772Z,53.80
2018-12-02T15:05:13.641Z,43.83
2018-12-02T15:07:41.780Z,54.63
2018-12-02T15:10:10.386Z,53.60
2018-12-02T15:12:38.109Z,49.40
2018-12-02T15:15:07.583Z,49.43
2018-12-02T15:17:35.413Z,48.40
2018-12-02T15:20:03.204Z,53.50
2018-12-02T15:22:31.003Z,50.13
2018-12-02T15:24:58.771Z,56.90
2018-12-02T15:27:26.488Z,61.73
2018-12-02T15:29:54.460Z,73.67
2018-12-02T15:32:22.414Z,78.10
2018-12-02T15:34:50.127Z,79.13
2018-12-02T15:37:17.919Z,73.03
2018-12-02T15:39:45.771Z,62.63
2018-12-02T15:42:13.540Z,56.70
2018-12-02T15:44:41.280Z,62.93
2018-12-02T15:47:09.060Z,62.20
2018-12-02T15:49:37.487Z,59.27
2018-12-02T15:52:05.668Z,45.93
2018-12-02T15:54:33.454Z,51.67
2018-12-02T15:57:01.186Z,50.83
2018-12-02T15:59:29.018Z,48.57
2018-12-02T16:01:56.716Z,40.27
2018-12-02T16:04:24.808Z,47.63
2018-12-02T16:06:52.700Z,37.00
2018-12-02T16:09:20.581Z,45.33
2018-12-02T16:11:48.309Z,47.83
2018-12-02T16:14:16.162Z,42.67
2018-12-02T16:16:43.928Z,45.07
2018-12-02T16:19:11.843Z,40.63
2018-12-02T16:21:39.751Z,49.60
2018-12-02T16:24:07.510Z,52.63
2018-12-02T16:26:35.322Z,55.40
2018-12-02T16:29:03.036Z,57.57
2018-12-02T16:31:30.986Z,54.70
2018-12-02T16:33:59.003Z,46.40
2018-12-02T16:36:27.530Z,50.43
2018-12-02T16:38:55.346Z,41.97
2018-12-02T16:41:23.364Z,48.17
2018-12-02T16:43:51.119Z,50.13
2018-12-02T16:46:19.933Z,49.07
2018-12-02T16:48:48.057Z,45.10
2018-12-02T16:51:15.967Z,47.57
2018-12-02T16:53:43.688Z,39.20
2018-12-02T16:56:13.017Z,46.43
2018-12-02T16:58:46.836Z,44.77
2018-12-02T17:01:16.068Z,41.33
2018-12-02T17:03:47.601Z,47.67
2018-12-02T17:06:15.295Z,51.13
2018-12-02T17:08:43.158Z,48.90
2018-12-02T17:11:10.865Z,64.87
2018-12-02T17:13:38.690Z,61.10
2018-12-02T17:16:06.755Z,69.67
2018-12-02T17:18:34.671Z,70.63
2018-12-02T17:21:02.742Z,71.70
2018-12-02T17:23:30.593Z,81.97
2018-12-02T17:25:58.491Z,88.23
2018-12-02T17:28:28.858Z,89.23
2018-12-02T17:30:55.075Z,86.30
2018-12-02T17:33:22.925Z,89.00
2018-12-02T17:35:51.311Z,96.27
2018-12-02T17:38:19.459Z,99.17
2018-12-02T17:40:47.327Z,105.23
2018-12-02T17:43:15.295Z,101.20
2018-12-02T17:45:43.123Z,122.30
2018-12-02T17:48:10.829Z,123.13
2018-12-02T17:50:38.661Z,121.50
2018-12-02T17:53:07.537Z,119.40
2018-12-02T17:55:35.349Z,131.10
2018-12-02T17:58:03.276Z,129.87
2018-12-02T18:00:31.319Z,137.43
2018-12-02T18:02:59.860Z,135.13
2018-12-02T18:05:29.445Z,132.93
2018-12-02T18:07:57.212Z,137.70
2018-12-02T18:10:25.103Z,136.03
2018-12-02T18:12:52.836Z,135.00
2018-12-02T18:15:20.856Z,136.50
2018-12-02T18:17:48.532Z,134.77
2018-12-02T18:20:17.818Z,127.13
2018-12-02T18:22:45.447Z,121.03
2018-12-02T18:25:13.759Z,129.37
2018-12-02T18:27:41.580Z,135.27
2018-12-02T18:30:11.404Z,126.57
2018-12-02T18:32:39.408Z,128.70
2018-12-02T18:35:09.982Z,124.70
2018-12-02T18:37:37.708Z,127.73
2018-12-02T18:40:05.992Z,127.47
2018-12-02T18:42:33.763Z,136.40
2018-12-02T18:45:01.808Z,118.73
2018-12-02T18:47:29.537Z,117.60
2018-12-02T18:49:57.462Z,127.27
2018-12-02T18:52:25.382Z,119.97
2018-12-02T18:54:53.474Z,113.43
2018-12-02T18:57:21.260Z,112.10
2018-12-02T18:59:49.241Z,105.83
2018-12-02T19:02:16.951Z,102.37
2018-12-02T19:04:44.730Z,113.53
2018-12-02T19:07:19.203Z,118.97
2018-12-02T19:09:47.016Z,117.23
2018-12-02T19:12:14.856Z,117.67
2018-12-02T19:14:42.711Z,109.83
2018-12-02T19:17:10.483Z,108.17
2018-12-02T19:19:38.185Z,107.00
2018-12-02T19:22:06.478Z,105.63
2018-12-02T19:24:34.700Z,105.63
2018-12-02T19:27:02.562Z,105.77
2018-12-02T19:29:30.362Z,112.93
2018-12-02T19:31:58.151Z,109.23
2018-12-02T19:34:26.070Z,116.10
2018-12-02T19:36:55.190Z,110.63
2018-12-02T19:39:23.016Z,103.50
2018-12-02T19:41:51.020Z,102.03
2018-12-02T19:44:18.982Z,103.73
2018-12-02T19:46:47.062Z,112.63
2018-12-02T19:49:14.800Z,108.20
2018-12-02T19:51:42.626Z,101.83
2018-12-02T19:54:10.334Z,102.63
2018-12-02T19:56:38.120Z,100.33
2018-12-02T19:59:05.957Z,88.07
2018-12-02T20:01:33.778Z,91.60
2018-12-02T20:04:01.590Z,96.53
2018-12-02T20:06:29.380Z,98.83
2018-12-02T20:08:57.121Z,93.47
2018-12-02T20:11:24.955Z,90.80
2018-12-02T20:13:52.759Z,94.63
2018-12-02T20:16:20.543Z,93.40
2018-12-02T20:18:48.452Z,93.40
2018-12-02T20:21:16.706Z,89.73
2018-12-02T20:23:50.019Z,94.43
2018-12-02T20:26:17.771Z,112.33
2018-12-02T20:28:49.639Z,122.43
2018-12-02T20:31:18.741Z,119.17
2018-12-02T20:33:46.502Z,131.80
2018-12-02T20:36:14.276Z,137.57
2018-12-02T20:38:42.116Z,135.67
2018-12-02T20:41:10.061Z,157.00
2018-12-02T20:43:38.222Z,152.40
2018-12-02T20:46:06.116Z,153.77
2018-12-02T20:48:34.263Z,128.10
2018-12-02T20:51:02.047Z,130.10
2018-12-02T20:53:29.848Z,129.37
2018-12-02T20:55:57.598Z,125.50
2018-12-02T20:58:25.318Z,125.13
2018-12-02T21:00:53.242Z,126.70
2018-12-02T21:03:21.897Z,123.87
2018-12-02T21:05:51.801Z,123.57
2018-12-02T21:08:19.591Z,123.97
2018-12-02T21:10:47.460Z,122.80
2018-12-02T21:13:15.234Z,118.77
2018-12-02T21:15:42.885Z,120.73
2018-12-02T21:18:10.680Z,120.53
2018-12-02T21:20:38.503Z,126.10
2018-12-02T21:23:06.396Z,118.77
2018-12-02T21:25:34.230Z,125.90
2018-12-02T21:28:01.875Z,117.53
2018-12-02T21:30:29.919Z,99.43
2018-12-02T21:32:57.741Z,99.53
2018-12-02T21:35:25.573Z,95.07
2018-12-02T21:37:54.121Z,94.87
2018-12-02T21:40:21.824Z,91.17
2018-12-02T21:42:49.765Z,88.07
2018-12-02T21:45:17.733Z,85.47
2018-12-02T21:47:46.040Z,90.03
2018-12-02T21:50:15.627Z,89.03
2018-12-02T21:52:44.027Z,91.10
2018-12-02T21:55:11.697Z,98.07
2018-12-02T21:57:39.498Z,97.83
2018-12-02T22:00:13.738Z,92.90
2018-12-02T22:02:41.542Z,93.47
2018-12-02T22:05:09.247Z,94.27
2018-12-02T22:07:36.937Z,91.07
2018-12-02T22:10:05.873Z,90.60
2018-12-02T22:12:33.639Z,84.53
2018-12-02T22:15:01.351Z,83.23
2018-12-02T22:17:29.175Z,81.63
2018-12-02T22:19:56.936Z,78.40
2018-12-02T22:22:24.813Z,82.97
2018-12-02T22:24:52.483Z,81.73
2018-12-02T22:27:20.313Z,91.93
2018-12-02T22:29:48.534Z,96.70
2018-12-02T22:32:16.324Z,94.57
2018-12-02T22:34:44.222Z,93.17
2018-12-02T22:37:11.927Z,97.27
2018-12-02T22:39:39.781Z,105.70
2018-12-02T22:42:07.489Z,111.50
2018-12-02T22:44:35.340Z,121.10
2018-12-02T22:47:03.045Z,109.37
2018-12-02T22:49:30.767Z,107.83
2018-12-02T22:51:58.841Z,110.07
2018-12-02T22:54:26.741Z,102.13
2018-12-02T22:56:54.529Z,103.30
2018-12-02T22:59:22.225Z,102.00
2018-12-02T23:01:55.526Z,101.03
2018-12-02T23:04:23.324Z,106.30
2018-12-02T23:06:51.199Z,111.47
2018-12-02T23:09:18.931Z,108.47
2018-12-02T23:11:47.003Z,103.17
2018-12-02T23:14:14.753Z,100.80
2018-12-02T23:16:46.816Z,111.07
2018-12-02T23:19:14.584Z,106.10
2018-12-02T23:21:42.552Z,99.77
2018-12-02T23:24:10.400Z,100.33
2018-12-02T23:26:38.252Z,95.07
2018-12-02T23:29:08.490Z,96.33
2018-12-02T23:31:33.795Z,88.43
2018-12-02T23:34:01.594Z,100.80
2018-12-02T23:36:29.312Z,89.83
2018-12-02T23:38:57.186Z,94.30
2018-12-02T23:41:24.990Z,92.77
2018-12-02T23:43:53.162Z,91.43
2018-12-02T23:46:21.036Z,86.60
2018-12-02T23:48:48.804Z,82.70
2018-12-02T23:51:16.651Z,85.33
2018-12-02T23:53:44.711Z,87.63
2018-12-02T23:56:12.383Z,80.90
2018-12-02T23:58:40.102Z,79.13
